createdAt,value
2022-11-13T00:00:43.687Z,3.63
2022-11-13T00:03:10.174Z,4.05
2022-11-13T00:05:36.699Z,4.70
2022-11-13T00:08:03.294Z,4.25
2022-11-13T00:10:29.811Z,4.93
2022-11-13T00:12:56.350Z,4.40
2022-11-13T00:15:22.928Z,4.95
2022-11-13T00:17:49.398Z,5.10
2022-11-13T00:20:16.039Z,5.07
2022-11-13T00:22:42.592Z,4.80
2022-11-13T00:25:09.491Z,4.63
2022-11-13T00:27:36.154Z,5.03
2022-11-13T00:30:02.711Z,4.22
2022-11-13T00:32:29.246Z,4.25
2022-11-13T00:34:55.786Z,4.40
2022-11-13T00:37:22.277Z,4.65
2022-11-13T00:39:48.823Z,4.65
2022-11-13T00:42:15.521Z,4.82
2022-11-13T00:44:42.160Z,4.93
2022-11-13T00:47:08.664Z,5.18
2022-11-13T00:49:35.161Z,4.22
2022-11-13T00:52:03.159Z,4.50
2022-11-13T00:54:29.922Z,4.90
2022-11-13T00:59:22.922Z,3.63
2022-11-13T01:01:49.463Z,4.18
2022-11-13T01:04:16.027Z,3.63
2022-11-13T01:06:42.588Z,4.43
2022-11-13T01:09:09.388Z,4.10
2022-11-13T01:14:02.315Z,3.95
2022-11-13T01:16:29.588Z,4.00
2022-11-13T01:18:57.068Z,3.67
2022-11-13T01:21:26.590Z,4.30
2022-11-13T01:23:54.689Z,4.35
2022-11-13T01:26:24.276Z,4.70
2022-11-13T01:28:51.136Z,4.68
2022-11-13T01:31:21.282Z,4.53
2022-11-13T01:33:49.129Z,4.15
2022-11-13T01:36:22.291Z,4.20
2022-11-13T01:38:49.847Z,3.97
2022-11-13T01:41:26.601Z,3.90
2022-11-13T01:43:55.424Z,4.18
2022-11-13T01:46:26.578Z,4.13
2022-11-13T01:49:08.551Z,4.85
2022-11-13T01:51:41.524Z,4.53
2022-11-13T01:54:13.012Z,4.68
2022-11-13T01:56:40.888Z,5.10
2022-11-13T01:59:12.992Z,4.60
2022-11-13T02:01:39.595Z,5.10
2022-11-13T02:04:06.326Z,4.47
2022-11-13T02:06:42.644Z,4.60
2022-11-13T02:09:10.380Z,4.20
2022-11-13T02:11:37.927Z,4.78
2022-11-13T02:14:04.842Z,4.55
2022-11-13T02:16:33.580Z,4.75
2022-11-13T02:19:03.869Z,4.63
2022-11-13T02:22:03.374Z,4.65
2022-11-13T02:24:36.792Z,5.07
2022-11-13T02:27:13.220Z,5.60
2022-11-13T02:29:39.845Z,4.63
2022-11-13T02:32:06.416Z,4.45
2022-11-13T02:34:32.962Z,4.53
2022-11-13T02:36:59.464Z,4.68
2022-11-13T02:39:26.106Z,4.38
2022-11-13T02:41:52.911Z,5.15
2022-11-13T02:46:45.883Z,4.53
2022-11-13T02:49:12.406Z,5.07
2022-11-13T02:51:39.004Z,4.75
2022-11-13T02:54:05.758Z,4.38
2022-11-13T02:58:58.686Z,4.10
2022-11-13T03:01:25.345Z,4.78
2022-11-13T03:03:59.273Z,4.32
2022-11-13T03:06:25.886Z,4.72
2022-11-13T03:08:52.343Z,5.13
2022-11-13T03:11:18.862Z,4.40
2022-11-13T03:13:45.338Z,4.40
2022-11-13T03:16:15.174Z,4.35
2022-11-13T03:18:42.000Z,5.10
2022-11-13T03:26:08.153Z,3.72
2022-11-13T03:28:35.464Z,4.30
2022-11-13T03:31:02.523Z,3.88
2022-11-13T03:33:29.491Z,3.95
2022-11-13T03:35:56.018Z,3.72
2022-11-13T03:38:23.145Z,3.88
2022-11-13T03:40:50.162Z,3.47
2022-11-13T03:43:16.642Z,3.42
2022-11-13T03:45:45.215Z,4.07
2022-11-13T03:48:12.765Z,3.83
2022-11-13T03:50:44.277Z,3.75
2022-11-13T03:53:12.049Z,3.53
2022-11-13T03:55:38.982Z,4.18
2022-11-13T03:58:05.478Z,4.07
2022-11-13T04:00:32.189Z,4.30
2022-11-13T04:02:58.644Z,3.80
2022-11-13T04:05:27.425Z,4.32
2022-11-13T04:07:53.986Z,4.57
2022-11-13T04:10:20.438Z,4.65
2022-11-13T04:12:46.875Z,4.75
2022-11-13T04:15:13.566Z,4.15
2022-11-13T04:17:40.046Z,4.00
2022-11-13T04:20:07.479Z,4.20
2022-11-13T04:22:33.891Z,4.32
2022-11-13T04:25:00.470Z,4.20
2022-11-13T04:27:26.896Z,4.13
2022-11-13T04:29:53.311Z,4.60
2022-11-13T04:32:19.814Z,4.15
2022-11-13T04:34:46.234Z,4.35
2022-11-13T04:37:12.766Z,4.40
2022-11-13T04:39:39.182Z,4.88
2022-11-13T04:42:24.627Z,4.70
2022-11-13T04:44:51.178Z,4.65
2022-11-13T04:47:17.611Z,5.20
2022-11-13T04:49:44.026Z,4.30
2022-11-13T04:52:10.494Z,4.30
2022-11-13T04:54:36.957Z,4.57
2022-11-13T04:57:03.462Z,4.45
2022-11-13T04:59:29.984Z,5.25
2022-11-13T05:01:57.037Z,4.70
2022-11-13T05:04:23.763Z,4.72
2022-11-13T05:06:50.320Z,4.38
2022-11-13T05:09:17.976Z,4.70
2022-11-13T05:11:44.423Z,4.50
2022-11-13T05:14:13.929Z,4.95
2022-11-13T05:16:40.412Z,4.93
2022-11-13T05:19:07.083Z,4.95
2022-11-13T05:21:37.695Z,4.65
2022-11-13T05:24:05.391Z,5.03
2022-11-13T05:26:31.931Z,5.25
2022-11-13T05:28:59.875Z,4.50
2022-11-13T05:31:27.331Z,5.20
2022-11-13T05:33:54.931Z,4.25
2022-11-13T05:36:22.778Z,4.53
2022-11-13T05:38:49.491Z,5.63
2022-11-13T05:41:21.512Z,4.55
2022-11-13T05:43:49.028Z,4.40
2022-11-13T05:46:23.587Z,5.03
2022-11-13T05:49:01.057Z,4.82
2022-11-13T05:51:30.460Z,5.00
2022-11-13T05:53:57.627Z,4.55
2022-11-13T05:56:35.763Z,4.35
2022-11-13T05:59:02.217Z,4.35
2022-11-13T06:01:30.658Z,4.63
2022-11-13T06:03:58.976Z,4.80
2022-11-13T06:06:27.364Z,3.95
2022-11-13T06:08:55.783Z,4.85
2022-11-13T06:11:24.600Z,5.13
2022-11-13T06:13:52.644Z,4.63
2022-11-13T06:16:26.587Z,4.97
2022-11-13T06:19:01.284Z,4.47
2022-11-13T06:21:30.508Z,5.20
2022-11-13T06:23:58.240Z,4.72
2022-11-13T06:26:36.431Z,4.60
2022-11-13T06:29:05.127Z,4.80
2022-11-13T06:31:34.688Z,4.45
2022-11-13T06:34:01.984Z,4.80
2022-11-13T06:36:33.849Z,4.47
2022-11-13T06:39:01.129Z,4.32
2022-11-13T06:41:31.256Z,5.10
2022-11-13T06:44:02.689Z,5.00
2022-11-13T06:46:30.530Z,4.68
2022-11-13T06:48:57.507Z,4.63
2022-11-13T06:51:26.858Z,4.50
2022-11-13T06:53:53.876Z,4.32
2022-11-13T06:56:20.993Z,5.13
2022-11-13T06:58:47.563Z,4.78
2022-11-13T07:01:24.746Z,4.10
2022-11-13T07:03:51.326Z,4.25
2022-11-13T07:06:21.369Z,4.38
2022-11-13T07:08:48.354Z,4.68
2022-11-13T07:11:20.602Z,4.85
2022-11-13T07:13:47.191Z,5.20
2022-11-13T07:16:17.789Z,4.55
2022-11-13T07:18:49.866Z,4.75
2022-11-13T07:21:16.415Z,3.75
2022-11-13T07:23:43.759Z,4.78
2022-11-13T07:26:11.077Z,4.13
2022-11-13T07:28:38.471Z,3.92
2022-11-13T07:31:07.418Z,4.30
2022-11-13T07:33:34.201Z,4.57
2022-11-13T07:38:27.563Z,4.63
2022-11-13T07:40:54.331Z,4.03
2022-11-13T07:43:20.836Z,4.32
2022-11-13T07:45:47.415Z,4.03
2022-11-13T07:48:13.959Z,6.10
2022-11-13T07:50:40.550Z,5.43
2022-11-13T07:53:08.693Z,5.10
2022-11-13T07:55:36.221Z,5.18
2022-11-13T07:58:03.776Z,4.18
2022-11-13T08:00:32.061Z,4.65
2022-11-13T08:02:59.671Z,4.20
2022-11-13T08:05:26.253Z,4.38
2022-11-13T08:07:53.045Z,4.38
2022-11-13T08:12:47.447Z,3.95
2022-11-13T08:15:14.517Z,4.50
2022-11-13T08:17:41.800Z,5.07
2022-11-13T08:20:09.243Z,4.47
2022-11-13T08:22:35.958Z,3.92
2022-11-13T08:27:29.166Z,3.78
2022-11-13T08:32:22.683Z,4.47
2022-11-13T08:34:49.501Z,4.93
2022-11-13T08:39:42.846Z,4.30
2022-11-13T08:42:09.344Z,4.60
2022-11-13T08:44:35.942Z,5.38
2022-11-13T08:47:02.553Z,5.20
2022-11-13T08:49:29.138Z,4.45
2022-11-13T08:51:55.727Z,4.75
2022-11-13T08:54:22.172Z,4.47
2022-11-13T08:56:54.626Z,4.30
2022-11-13T08:59:27.234Z,4.70
2022-11-13T09:01:59.323Z,4.45
2022-11-13T09:04:26.532Z,4.43
2022-11-13T09:06:53.642Z,4.45
2022-11-13T09:09:20.977Z,4.55
2022-11-13T09:11:47.532Z,3.85
2022-11-13T09:14:14.361Z,4.65
2022-11-13T09:16:41.305Z,4.82
2022-11-13T09:19:07.986Z,4.57
2022-11-13T09:24:00.873Z,5.28
2022-11-13T09:26:27.341Z,4.28
2022-11-13T09:28:53.908Z,4.55
2022-11-13T09:31:20.436Z,4.53
2022-11-13T09:33:46.973Z,4.20
2022-11-13T09:36:15.490Z,4.40
2022-11-13T09:38:42.365Z,4.45
2022-11-13T09:41:15.638Z,4.97
2022-11-13T09:43:47.680Z,4.90
2022-11-13T09:46:20.216Z,4.65
2022-11-13T09:49:02.612Z,4.70
2022-11-13T09:51:33.056Z,4.68
2022-11-13T09:54:05.240Z,4.90
2022-11-13T09:56:39.828Z,5.07
2022-11-13T09:59:22.451Z,5.38
2022-11-13T10:02:12.282Z,5.00
2022-11-13T10:05:00.412Z,5.10
2022-11-13T10:07:41.065Z,5.03
2022-11-13T10:10:35.977Z,5.47
2022-11-13T10:13:04.959Z,5.57
2022-11-13T10:15:31.885Z,5.88
2022-11-13T10:18:18.587Z,5.25
2022-11-13T10:20:57.961Z,4.95
2022-11-13T10:23:30.434Z,5.13
2022-11-13T10:26:05.513Z,5.47
2022-11-13T10:31:18.845Z,5.70
2022-11-13T10:33:45.377Z,5.32
2022-11-13T10:38:59.765Z,5.07
2022-11-13T10:41:26.356Z,5.07
2022-11-13T10:46:33.172Z,5.90
2022-11-13T10:49:13.464Z,5.68
2022-11-13T10:51:40.020Z,6.32
2022-11-13T10:57:05.420Z,4.95
2022-11-13T10:59:40.817Z,5.63
2022-11-13T11:02:20.566Z,5.55
2022-11-13T11:04:47.560Z,5.80
2022-11-13T11:07:20.682Z,6.00
2022-11-13T11:09:48.894Z,6.05
2022-11-13T11:12:30.153Z,6.80
2022-11-13T11:15:01.772Z,6.68
2022-11-13T11:17:43.636Z,6.82
2022-11-13T11:20:22.057Z,6.63
2022-11-13T11:22:58.947Z,6.40
2022-11-13T11:25:34.594Z,7.75
2022-11-13T11:28:09.896Z,7.90
2022-11-13T11:30:47.035Z,7.70
2022-11-13T11:36:00.816Z,6.50
2022-11-13T11:38:36.529Z,7.00
2022-11-13T11:41:15.029Z,6.72
2022-11-13T11:43:51.591Z,8.05
2022-11-13T11:46:23.847Z,7.40
2022-11-13T11:48:51.252Z,8.00
2022-11-13T11:52:05.616Z,7.50
2022-11-13T11:54:43.969Z,7.45
2022-11-13T11:57:31.766Z,8.02
2022-11-13T12:00:04.717Z,7.90
2022-11-13T12:03:10.448Z,8.00
2022-11-13T12:06:02.894Z,6.97
2022-11-13T12:08:57.147Z,7.43
2022-11-13T12:11:33.675Z,6.78
2022-11-13T12:14:23.526Z,6.70
2022-11-13T12:17:17.507Z,6.70
2022-11-13T12:19:49.749Z,6.57
2022-11-13T12:22:46.527Z,6.35
2022-11-13T12:25:26.629Z,7.57
2022-11-13T12:28:20.348Z,6.32
2022-11-13T12:31:05.186Z,6.60
2022-11-13T12:33:44.937Z,6.10
2022-11-13T12:36:13.869Z,7.28
2022-11-13T12:39:00.562Z,7.43
2022-11-13T12:41:49.277Z,6.93
2022-11-13T12:44:27.439Z,7.18
2022-11-13T12:46:56.197Z,7.13
2022-11-13T12:49:22.641Z,6.90
2022-11-13T12:51:54.958Z,8.13
2022-11-13T12:54:34.780Z,7.43
2022-11-13T12:57:13.401Z,7.75
2022-11-13T12:59:43.714Z,7.45
2022-11-13T13:02:40.845Z,7.47
2022-11-13T13:05:14.157Z,7.53
2022-11-13T13:08:05.247Z,8.05
2022-11-13T13:10:59.509Z,7.63
2022-11-13T13:13:45.698Z,7.18
2022-11-13T13:16:29.672Z,7.55
2022-11-13T13:19:20.969Z,7.45
2022-11-13T13:21:47.681Z,7.35
2022-11-13T13:26:53.099Z,7.50
2022-11-13T13:32:26.387Z,8.15
2022-11-13T13:35:03.827Z,7.93
2022-11-13T13:38:05.840Z,7.90
2022-11-13T13:40:35.439Z,8.18
2022-11-13T13:43:56.214Z,9.32
2022-11-13T13:46:26.018Z,9.00
2022-11-13T13:48:56.835Z,9.13
2022-11-13T13:51:43.520Z,10.30
2022-11-13T13:54:15.214Z,10.23
2022-11-13T13:56:42.715Z,9.32
2022-11-13T13:59:19.624Z,9.60
2022-11-13T14:01:58.613Z,9.43
2022-11-13T14:04:32.875Z,9.48
2022-11-13T14:07:01.942Z,9.52
2022-11-13T14:09:30.798Z,10.23
2022-11-13T14:12:00.682Z,10.23
2022-11-13T14:14:29.038Z,8.85
2022-11-13T14:17:01.738Z,9.93
2022-11-13T14:19:28.432Z,10.20
2022-11-13T14:24:34.139Z,10.82
2022-11-13T14:27:05.782Z,11.30
2022-11-13T14:29:39.271Z,10.73
2022-11-13T14:32:44.284Z,10.25
2022-11-13T14:35:22.239Z,11.00
2022-11-13T14:37:49.242Z,12.10
2022-11-13T14:40:25.495Z,11.57
2022-11-13T14:43:05.449Z,12.93
2022-11-13T14:45:33.316Z,13.25
2022-11-13T14:48:01.108Z,12.90
2022-11-13T14:50:34.103Z,13.05
2022-11-13T14:53:06.818Z,12.20
2022-11-13T14:55:37.681Z,11.93
2022-11-13T14:58:05.454Z,13.85
2022-11-13T15:00:35.949Z,14.10
2022-11-13T15:03:04.778Z,15.55
2022-11-13T15:05:31.544Z,14.90
2022-11-13T15:10:27.852Z,16.98
2022-11-13T15:12:54.593Z,17.15
2022-11-13T15:17:52.051Z,18.33
2022-11-13T15:20:22.969Z,18.77
2022-11-13T15:22:52.443Z,18.17
2022-11-13T15:25:21.809Z,16.88
2022-11-13T15:27:48.804Z,16.98
2022-11-13T15:30:17.009Z,20.02
2022-11-13T15:32:43.753Z,17.65
2022-11-13T15:37:46.878Z,17.58
2022-11-13T15:42:41.410Z,18.52
2022-11-13T15:45:14.178Z,19.50
2022-11-13T15:47:41.083Z,18.85
2022-11-13T15:50:16.105Z,18.80
2022-11-13T15:52:46.893Z,18.50
2022-11-13T15:55:25.266Z,18.55
2022-11-13T15:57:52.671Z,18.70
2022-11-13T16:00:25.254Z,18.98
2022-11-13T16:02:56.614Z,19.70
2022-11-13T16:05:25.484Z,17.80
2022-11-13T16:07:56.095Z,17.27
2022-11-13T16:10:25.317Z,17.25
2022-11-13T16:12:52.731Z,15.57
2022-11-13T16:15:19.985Z,16.63
2022-11-13T16:17:49.450Z,18.58
2022-11-13T16:20:17.922Z,16.05
2022-11-13T16:22:44.748Z,15.85
2022-11-13T16:27:39.821Z,15.13
2022-11-13T16:30:09.896Z,15.85
2022-11-13T16:32:38.686Z,16.50
2022-11-13T16:35:05.600Z,15.25
2022-11-13T16:37:32.132Z,16.15
2022-11-13T16:39:58.765Z,15.55
2022-11-13T16:42:30.697Z,16.23
2022-11-13T16:44:57.501Z,15.43
2022-11-13T16:47:25.998Z,16.20
2022-11-13T16:49:52.778Z,17.05
2022-11-13T16:54:45.936Z,14.57
2022-11-13T16:57:14.022Z,15.35
2022-11-13T16:59:40.884Z,15.13
2022-11-13T17:02:15.717Z,16.75
2022-11-13T17:04:43.137Z,17.50
2022-11-13T17:07:13.174Z,18.00
2022-11-13T17:09:44.023Z,19.65
2022-11-13T17:12:11.393Z,18.13
2022-11-13T17:14:38.899Z,17.67
2022-11-13T17:17:07.290Z,19.05
2022-11-13T17:19:33.950Z,19.50
2022-11-13T17:22:00.783Z,17.50
2022-11-13T17:24:27.383Z,18.30
2022-11-13T17:29:20.683Z,15.38
2022-11-13T17:31:47.328Z,18.30
2022-11-13T17:34:13.875Z,18.67
2022-11-13T17:36:40.401Z,17.77
2022-11-13T17:39:06.959Z,17.20
2022-11-13T17:41:34.225Z,17.95
2022-11-13T17:44:01.456Z,18.63
2022-11-13T17:46:28.350Z,16.42
2022-11-13T17:48:55.109Z,17.52
2022-11-13T17:53:48.098Z,18.48
2022-11-13T17:56:15.238Z,16.70
2022-11-13T17:58:43.508Z,17.48
2022-11-13T18:01:21.860Z,19.67
2022-11-13T18:03:54.480Z,17.80
2022-11-13T18:06:21.841Z,16.77
2022-11-13T18:08:48.381Z,16.40
2022-11-13T18:11:25.241Z,16.45
2022-11-13T18:13:52.808Z,15.98
2022-11-13T18:16:25.756Z,17.42
2022-11-13T18:18:55.528Z,17.92
2022-11-13T18:21:34.362Z,17.73
2022-11-13T18:24:10.107Z,16.95
2022-11-13T18:26:36.845Z,18.33
2022-11-13T18:31:30.589Z,16.55
2022-11-13T18:34:02.580Z,17.30
2022-11-13T18:36:29.281Z,18.23
2022-11-13T18:41:23.722Z,16.95
2022-11-13T18:43:51.820Z,17.70
2022-11-13T18:46:20.419Z,18.02
2022-11-13T18:48:47.757Z,20.30
2022-11-13T18:51:18.704Z,17.63
2022-11-13T18:53:48.446Z,17.73
2022-11-13T18:56:20.602Z,18.58
2022-11-13T18:58:48.501Z,19.38
2022-11-13T19:01:22.311Z,18.08
2022-11-13T19:04:16.157Z,17.80
2022-11-13T19:06:38.549Z,17.20
2022-11-13T19:09:08.226Z,19.88
2022-11-13T19:11:34.861Z,17.00
2022-11-13T19:14:02.158Z,17.10
2022-11-13T19:16:35.825Z,16.13
2022-11-13T19:19:06.019Z,16.15
2022-11-13T19:21:34.811Z,16.73
2022-11-13T19:24:02.623Z,17.40
2022-11-13T19:26:29.301Z,17.17
2022-11-13T19:31:25.339Z,14.05
2022-11-13T19:33:59.729Z,16.30
2022-11-13T19:36:28.382Z,16.70
2022-11-13T19:38:57.892Z,17.20
2022-11-13T19:41:26.205Z,17.58
2022-11-13T19:43:52.812Z,16.38
2022-11-13T19:46:20.300Z,16.70
2022-11-13T19:48:50.457Z,17.45
2022-11-13T19:51:23.133Z,17.88
2022-11-13T19:53:54.957Z,16.33
2022-11-13T19:56:23.044Z,17.35
2022-11-13T19:58:51.283Z,17.02
2022-11-13T20:01:23.560Z,16.77
2022-11-13T20:03:57.365Z,17.90
2022-11-13T20:06:24.442Z,18.00
2022-11-13T20:08:51.039Z,18.58
2022-11-13T20:11:17.737Z,19.13
2022-11-13T20:13:44.574Z,17.88
2022-11-13T20:18:39.361Z,14.50
2022-11-13T20:21:06.247Z,18.38
2022-11-13T20:23:33.358Z,16.45
2022-11-13T20:26:03.096Z,16.27
2022-11-13T20:28:31.563Z,15.48
2022-11-13T20:31:05.365Z,16.25
2022-11-13T20:33:33.404Z,15.85
2022-11-13T20:36:00.246Z,16.73
2022-11-13T20:38:27.642Z,17.50
2022-11-13T20:40:54.495Z,20.05
2022-11-13T20:43:21.373Z,19.75
2022-11-13T20:48:14.408Z,14.82
2022-11-13T20:50:41.322Z,16.48
2022-11-13T20:53:08.024Z,16.92
2022-11-13T20:55:34.591Z,17.27
2022-11-13T20:58:01.093Z,18.33
2022-11-13T21:00:27.614Z,16.35
2022-11-13T21:02:54.125Z,15.52
2022-11-13T21:05:20.681Z,15.30
2022-11-13T21:07:47.285Z,17.35
2022-11-13T21:10:13.857Z,16.90
2022-11-13T21:12:40.388Z,17.92
2022-11-13T21:15:07.393Z,16.02
2022-11-13T21:17:33.867Z,15.35
2022-11-13T21:20:00.536Z,17.98
2022-11-13T21:22:27.067Z,16.83
2022-11-13T21:24:53.778Z,19.58
2022-11-13T21:27:20.284Z,14.75
2022-11-13T21:29:46.788Z,16.15
2022-11-13T21:32:13.228Z,17.55
2022-11-13T21:34:39.882Z,17.08
2022-11-13T21:37:07.705Z,16.88
2022-11-13T21:39:34.733Z,17.02
2022-11-13T21:42:01.243Z,17.85
2022-11-13T21:44:27.708Z,18.58
2022-11-13T21:46:54.369Z,16.90
2022-11-13T21:51:47.385Z,16.02
2022-11-13T21:54:14.105Z,15.50
2022-11-13T21:56:42.056Z,16.55
